Time;durP1;ratioP1;P1;durP2;ratioP2;P2;SDS_P1;SDS_P2;PMS_P1;PMS_P2;Temp;Humidity;BMP_temperature;BMP_pressure;BME280_temperature;BME280_humidity;BME280_pressure;Samples;Min_cycle;Max_cycle;Signal;HPM_P1;HPM_P2
2021/09/09 00:00:53;;;;;;;2.50;0.90;;;;;;;;;;5109299;28;20027;-61
2021/09/09 00:03:20;;;;;;;2.37;1.10;;;;;;;;;;5109228;28;20024;-60
2021/09/09 00:05:47;;;;;;;3.80;1.00;;;;;;;;;;5113871;28;20023;-60
2021/09/09 00:08:13;;;;;;;0.93;0.80;;;;;;;;;;5115649;28;20034;-60
2021/09/09 00:10:40;;;;;;;2.40;0.90;;;;;;;;;;5115330;28;20034;-60
2021/09/09 00:13:07;;;;;;;1.97;1.00;;;;;;;;;;5115774;28;20026;-60
2021/09/09 00:15:34;;;;;;;3.67;1.00;;;;;;;;;;5115773;28;20027;-60
2021/09/09 00:18:00;;;;;;;3.13;1.20;;;;;;;;;;5111904;28;20107;-61
2021/09/09 00:20:27;;;;;;;1.90;0.90;;;;;;;;;;5099994;28;20040;-61
2021/09/09 00:22:54;;;;;;;2.63;0.80;;;;;;;;;;5089768;28;20585;-61
2021/09/09 00:25:21;;;;;;;5.13;1.10;;;;;;;;;;5089716;28;20024;-60
2021/09/09 00:27:47;;;;;;;1.87;1.10;;;;;;;;;;5092177;28;20016;-60
2021/09/09 00:30:14;;;;;;;3.63;1.43;;;;;;;;;;5094971;28;20077;-60
2021/09/09 00:32:41;;;;;;;4.60;1.50;;;;;;;;;;5094955;28;20020;-61
2021/09/09 00:35:08;;;;;;;4.70;1.77;;;;;;;;;;5094782;28;20052;-61
2021/09/09 00:37:35;;;;;;;3.13;1.10;;;;;;;;;;5094888;28;20031;-61
2021/09/09 00:40:02;;;;;;;1.87;0.73;;;;;;;;;;5091840;28;20399;-60
2021/09/09 00:42:28;;;;;;;3.77;1.03;;;;;;;;;;5089101;28;20020;-60
2021/09/09 00:44:55;;;;;;;5.10;1.43;;;;;;;;;;5089261;28;20466;-60
2021/09/09 00:47:22;;;;;;;2.13;0.77;;;;;;;;;;5089580;28;20081;-60
2021/09/09 00:49:49;;;;;;;2.23;0.90;;;;;;;;;;5097239;28;20038;-60
2021/09/09 00:52:16;;;;;;;0.97;0.50;;;;;;;;;;5115226;28;20032;-60
2021/09/09 00:54:43;;;;;;;1.73;0.63;;;;;;;;;;5115132;28;20415;-60
2021/09/09 00:57:10;;;;;;;1.30;0.77;;;;;;;;;;5114983;28;20045;-60
2021/09/09 00:59:37;;;;;;;1.07;0.60;;;;;;;;;;5114779;28;20038;-60
2021/09/09 01:02:05;;;;;;;0.67;0.50;;;;;;;;;;5112663;28;20039;-60
2021/09/09 01:04:32;;;;;;;4.33;0.97;;;;;;;;;;5109420;28;20057;-60
2021/09/09 01:06:59;;;;;;;2.47;0.90;;;;;;;;;;5109528;28;20140;-60
2021/09/09 01:09:26;;;;;;;1.83;1.00;;;;;;;;;;5109505;28;20042;-60
2021/09/09 01:11:53;;;;;;;2.13;1.10;;;;;;;;;;5110775;28;20085;-60
2021/09/09 01:14:20;;;;;;;5.33;1.33;;;;;;;;;;5114782;28;20028;-60
2021/09/09 01:16:47;;;;;;;3.50;1.60;;;;;;;;;;5114424;28;20019;-60
2021/09/09 01:19:15;;;;;;;5.93;1.17;;;;;;;;;;5110916;28;20370;-60
2021/09/09 01:21:42;;;;;;;3.40;1.70;;;;;;;;;;5094264;28;20077;-60
2021/09/09 01:24:12;;;;;;;3.77;1.60;;;;;;;;;;5092678;28;20024;-60
2021/09/09 01:26:55;;;;;;;3.13;1.53;;;;;;;;;;5088788;28;20417;-60
2021/09/09 01:29:23;;;;;;;2.70;1.30;;;;;;;;;;5088434;28;20082;-60
2021/09/09 01:31:50;;;;;;;3.33;1.50;;;;;;;;;;5088348;28;20016;-60
2021/09/09 01:34:17;;;;;;;2.23;1.40;;;;;;;;;;5089608;28;20401;-60
2021/09/09 01:36:45;;;;;;;2.67;1.80;;;;;;;;;;5093916;28;20502;-60
2021/09/09 01:39:11;;;;;;;4.30;1.87;;;;;;;;;;5093637;28;20530;-60
2021/09/09 01:41:38;;;;;;;2.87;1.53;;;;;;;;;;5093731;28;20078;-60
2021/09/09 01:44:05;;;;;;;2.80;1.63;;;;;;;;;;5093794;28;20028;-60
2021/09/09 01:46:32;;;;;;;3.83;1.67;;;;;;;;;;5092173;28;20047;-60
2021/09/09 01:48:59;;;;;;;3.13;1.57;;;;;;;;;;5089685;28;20032;-60
2021/09/09 01:51:26;;;;;;;3.33;1.73;;;;;;;;;;5108513;28;20471;-60
2021/09/09 01:53:54;;;;;;;2.90;1.37;;;;;;;;;;5108215;28;20032;-60
2021/09/09 01:56:21;;;;;;;3.20;1.83;;;;;;;;;;5108919;28;20076;-60
2021/09/09 01:58:48;;;;;;;4.10;2.27;;;;;;;;;;5113857;28;20076;-60
2021/09/09 02:01:16;;;;;;;4.43;2.50;;;;;;;;;;5113748;28;20035;-60
2021/09/09 02:03:43;;;;;;;4.93;2.70;;;;;;;;;;5113740;28;20064;-60
2021/09/09 02:06:10;;;;;;;5.30;2.70;;;;;;;;;;5113470;28;20020;-60
2021/09/09 02:08:36;;;;;;;4.70;2.60;;;;;;;;;;5112907;28;20032;-60
2021/09/09 02:11:03;;;;;;;3.80;2.27;;;;;;;;;;5108288;28;20027;-60
2021/09/09 02:13:30;;;;;;;7.10;2.33;;;;;;;;;;5108307;28;20428;-60
2021/09/09 02:15:57;;;;;;;5.30;2.10;;;;;;;;;;5108271;28;20029;-61
2021/09/09 02:18:23;;;;;;;2.67;1.60;;;;;;;;;;5108210;28;20034;-60
2021/09/09 02:20:50;;;;;;;4.00;1.80;;;;;;;;;;5093608;28;20032;-60
2021/09/09 02:23:17;;;;;;;2.37;1.57;;;;;;;;;;5092663;28;20020;-60
2021/09/09 02:25:44;;;;;;;2.33;1.30;;;;;;;;;;5092856;28;20042;-60
2021/09/09 02:28:11;;;;;;;2.43;1.53;;;;;;;;;;5091980;28;20437;-60
2021/09/09 02:30:37;;;;;;;3.37;1.77;;;;;;;;;;5092923;28;20426;-60
2021/09/09 02:33:04;;;;;;;2.97;1.73;;;;;;;;;;5087488;28;20032;-61
2021/09/09 02:35:31;;;;;;;3.03;1.60;;;;;;;;;;5087381;28;20024;-60
2021/09/09 02:37:58;;;;;;;1.60;1.13;;;;;;;;;;5087566;28;20020;-60
2021/09/09 02:40:25;;;;;;;2.63;1.50;;;;;;;;;;5087006;28;20043;-60
2021/09/09 02:42:51;;;;;;;7.80;1.90;;;;;;;;;;5091594;28;20020;-61
2021/09/09 02:45:18;;;;;;;7.37;1.97;;;;;;;;;;5092823;28;20027;-60
2021/09/09 02:47:45;;;;;;;6.67;2.23;;;;;;;;;;5092677;28;20095;-60
2021/09/09 02:50:12;;;;;;;2.80;1.53;;;;;;;;;;5106352;28;20519;-60
2021/09/09 02:52:39;;;;;;;2.50;1.77;;;;;;;;;;5113021;28;20023;-59
2021/09/09 02:55:06;;;;;;;3.07;1.70;;;;;;;;;;5106582;28;20537;-60
2021/09/09 02:57:33;;;;;;;4.23;1.30;;;;;;;;;;5107320;28;20015;-59
2021/09/09 02:59:59;;;;;;;3.93;1.70;;;;;;;;;;5107184;28;20032;-59
2021/09/09 03:02:26;;;;;;;5.93;1.93;;;;;;;;;;5107433;28;20084;-60
2021/09/09 03:04:54;;;;;;;3.83;1.70;;;;;;;;;;5111008;28;20054;-59
2021/09/09 03:07:22;;;;;;;3.30;2.10;;;;;;;;;;5112883;27;20374;-59
2021/09/09 03:09:48;;;;;;;5.47;2.00;;;;;;;;;;5112764;28;20121;-59
2021/09/09 03:12:15;;;;;;;4.73;2.10;;;;;;;;;;5112519;28;20058;-60
2021/09/09 03:14:42;;;;;;;3.43;1.83;;;;;;;;;;5112727;28;20024;-59
2021/09/09 03:17:10;;;;;;;4.57;1.47;;;;;;;;;;5108579;28;20052;-59
2021/09/09 03:19:38;;;;;;;3.43;1.67;;;;;;;;;;5107195;28;20099;-60
2021/09/09 03:22:05;;;;;;;2.80;1.50;;;;;;;;;;5107274;28;20023;-59
2021/09/09 03:24:32;;;;;;;2.43;1.67;;;;;;;;;;5095659;28;20384;-60
2021/09/09 03:26:59;;;;;;;5.90;2.20;;;;;;;;;;5089838;28;20036;-60
2021/09/09 03:29:26;;;;;;;7.00;2.20;;;;;;;;;;5092025;28;20081;-59
2021/09/09 03:31:53;;;;;;;3.30;2.07;;;;;;;;;;5091821;28;20020;-60
2021/09/09 03:34:19;;;;;;;3.27;1.80;;;;;;;;;;5092061;28;20422;-59
2021/09/09 03:36:46;;;;;;;4.27;2.10;;;;;;;;;;5092098;28;20382;-59
2021/09/09 03:39:13;;;;;;;3.00;2.20;;;;;;;;;;5089106;28;20029;-59
2021/09/09 03:41:40;;;;;;;3.60;2.00;;;;;;;;;;5086740;28;20067;-59
2021/09/09 03:44:06;;;;;;;7.67;2.60;;;;;;;;;;5086949;28;20028;-59
2021/09/09 03:46:33;;;;;;;2.50;1.80;;;;;;;;;;5086749;28;20035;-59
2021/09/09 03:49:00;;;;;;;2.97;2.13;;;;;;;;;;5089019;28;20028;-59
2021/09/09 03:51:27;;;;;;;4.30;2.37;;;;;;;;;;5091581;28;20020;-59
2021/09/09 03:53:53;;;;;;;3.37;2.40;;;;;;;;;;5097209;28;20471;-59
2021/09/09 03:56:20;;;;;;;2.97;2.10;;;;;;;;;;5112228;28;20513;-59
2021/09/09 03:58:47;;;;;;;2.70;1.77;;;;;;;;;;5112401;28;20103;-59
2021/09/09 04:01:14;;;;;;;2.17;1.50;;;;;;;;;;5109953;28;20035;-60
2021/09/09 04:03:40;;;;;;;1.83;1.23;;;;;;;;;;5106816;28;20027;-59
2021/09/09 04:06:07;;;;;;;2.13;1.30;;;;;;;;;;5107035;28;20032;-59
2021/09/09 04:08:34;;;;;;;3.47;1.07;;;;;;;;;;5106249;28;20024;-60
2021/09/09 04:11:01;;;;;;;2.13;1.40;;;;;;;;;;5107958;28;20428;-59
2021/09/09 04:13:27;;;;;;;2.07;1.20;;;;;;;;;;5112057;28;20050;-59
2021/09/09 04:15:54;;;;;;;2.23;1.20;;;;;;;;;;5112188;28;20032;-59
2021/09/09 04:18:21;;;;;;;2.20;1.00;;;;;;;;;;5114267;28;20441;-59
2021/09/09 04:20:48;;;;;;;1.27;1.00;;;;;;;;;;5115548;28;20027;-59
2021/09/09 04:23:14;;;;;;;0.87;0.60;;;;;;;;;;5113910;28;20027;-59
2021/09/09 04:25:41;;;;;;;2.07;1.03;;;;;;;;;;5069011;28;20024;-59
2021/09/09 04:28:08;;;;;;;1.57;1.07;;;;;;;;;;5069675;28;20464;-59
2021/09/09 04:30:35;;;;;;;1.40;0.90;;;;;;;;;;5083345;28;20321;-59
2021/09/09 04:33:01;;;;;;;2.63;1.50;;;;;;;;;;5090341;28;20031;-59
2021/09/09 04:35:28;;;;;;;2.17;1.03;;;;;;;;;;5095004;28;20069;-59
2021/09/09 04:37:55;;;;;;;1.63;0.80;;;;;;;;;;5094846;28;20020;-60
2021/09/09 04:40:22;;;;;;;2.30;1.00;;;;;;;;;;5094926;28;20031;-59
2021/09/09 04:42:48;;;;;;;2.50;1.10;;;;;;;;;;5094269;28;20016;-60
2021/09/09 04:45:15;;;;;;;2.77;1.13;;;;;;;;;;5094536;28;20016;-59
2021/09/09 04:47:42;;;;;;;2.90;1.03;;;;;;;;;;5089540;28;20100;-59
2021/09/09 04:50:09;;;;;;;2.17;1.20;;;;;;;;;;5089938;28;20399;-59
2021/09/09 04:52:36;;;;;;;2.07;1.10;;;;;;;;;;5108372;28;20486;-59
2021/09/09 04:55:04;;;;;;;1.13;0.83;;;;;;;;;;5109816;28;20028;-59
2021/09/09 04:57:31;;;;;;;1.90;0.80;;;;;;;;;;5114867;28;20106;-59
2021/09/09 04:59:58;;;;;;;1.60;0.80;;;;;;;;;;5114165;28;20477;-59
2021/09/09 05:02:24;;;;;;;1.03;0.80;;;;;;;;;;5114841;28;20038;-59
2021/09/09 05:04:51;;;;;;;2.23;1.20;;;;;;;;;;5114775;28;20019;-59
2021/09/09 05:07:18;;;;;;;1.33;0.90;;;;;;;;;;5115007;28;20019;-59
2021/09/09 05:09:45;;;;;;;2.30;1.37;;;;;;;;;;5109373;28;20011;-59
2021/09/09 05:12:11;;;;;;;2.03;1.20;;;;;;;;;;5109512;28;20099;-59
2021/09/09 05:14:38;;;;;;;1.70;1.20;;;;;;;;;;5109412;28;20038;-59
2021/09/09 05:17:05;;;;;;;1.73;1.10;;;;;;;;;;5108601;28;20023;-59
2021/09/09 05:19:32;;;;;;;2.10;1.40;;;;;;;;;;5112525;28;20066;-59
2021/09/09 05:21:58;;;;;;;1.87;1.10;;;;;;;;;;5094185;28;20090;-59
2021/09/09 05:24:25;;;;;;;2.03;1.37;;;;;;;;;;5094168;28;20081;-59
2021/09/09 05:26:52;;;;;;;1.33;1.07;;;;;;;;;;5093875;28;20043;-59
2021/09/09 05:29:22;;;;;;;2.30;1.40;;;;;;;;;;5092944;28;20356;-59
2021/09/09 05:31:49;;;;;;;1.77;1.07;;;;;;;;;;5089392;28;20032;-60
2021/09/09 05:34:16;;;;;;;1.37;0.87;;;;;;;;;;5088538;28;20032;-59
2021/09/09 05:36:43;;;;;;;2.10;0.80;;;;;;;;;;5107757;28;20023;-59
2021/09/09 05:39:09;;;;;;;7.53;1.30;;;;;;;;;;5109142;28;20070;-59
2021/09/09 05:41:36;;;;;;;1.33;0.80;;;;;;;;;;5112706;28;20040;-59
2021/09/09 05:44:03;;;;;;;1.50;1.10;;;;;;;;;;5113895;28;20373;-59
2021/09/09 05:46:30;;;;;;;1.40;1.00;;;;;;;;;;5114150;28;20122;-59
2021/09/09 05:48:57;;;;;;;1.53;1.00;;;;;;;;;;5113800;28;20023;-59
2021/09/09 05:51:23;;;;;;;1.63;1.03;;;;;;;;;;5113376;28;20039;-59
2021/09/09 05:53:50;;;;;;;1.57;0.90;;;;;;;;;;5110593;28;20094;-59
2021/09/09 05:56:17;;;;;;;2.27;1.10;;;;;;;;;;5108979;28;20098;-59
2021/09/09 05:58:44;;;;;;;1.60;1.00;;;;;;;;;;5108649;28;20027;-60
2021/09/09 06:01:11;;;;;;;2.17;1.37;;;;;;;;;;5108714;28;20035;-61
2021/09/09 06:03:38;;;;;;;9.67;1.27;;;;;;;;;;5111289;28;20019;-63
2021/09/09 06:06:05;;;;;;;10.23;1.90;;;;;;;;;;5098934;28;20047;-63
2021/09/09 06:08:37;;;;;;;3.30;1.00;;;;;;;;;;5092769;28;20357;-62
2021/09/09 06:11:04;;;;;;;2.37;1.10;;;;;;;;;;5093422;28;20522;-61
2021/09/09 06:13:32;;;;;;;3.23;1.27;;;;;;;;;;5093254;28;20036;-60
2021/09/09 06:15:59;;;;;;;3.07;1.07;;;;;;;;;;5089999;28;20038;-60
2021/09/09 06:18:25;;;;;;;1.83;0.80;;;;;;;;;;5088148;28;20082;-60
2021/09/09 06:20:52;;;;;;;1.57;1.00;;;;;;;;;;5087854;28;20036;-59
2021/09/09 06:23:19;;;;;;;1.80;1.00;;;;;;;;;;5087696;28;20024;-60
2021/09/09 06:25:46;;;;;;;3.03;0.73;;;;;;;;;;5089929;28;20031;-59
2021/09/09 06:28:12;;;;;;;2.60;0.50;;;;;;;;;;5092882;28;20063;-59
2021/09/09 06:30:39;;;;;;;0.60;0.60;;;;;;;;;;5092851;28;20093;-59
2021/09/09 06:33:06;;;;;;;2.90;1.00;;;;;;;;;;5092950;28;20020;-60
2021/09/09 06:35:33;;;;;;;1.43;0.83;;;;;;;;;;5102340;28;20031;-60
2021/09/09 06:37:59;;;;;;;0.87;0.67;;;;;;;;;;5110574;28;20484;-60
2021/09/09 06:40:26;;;;;;;1.67;0.87;;;;;;;;;;5107278;28;20035;-61
2021/09/09 06:42:53;;;;;;;1.07;0.73;;;;;;;;;;5107765;28;20144;-60
2021/09/09 06:45:20;;;;;;;1.40;0.80;;;;;;;;;;5108014;28;20031;-59
2021/09/09 06:47:48;;;;;;;0.90;0.53;;;;;;;;;;5109581;28;20016;-59
2021/09/09 06:50:14;;;;;;;1.23;0.77;;;;;;;;;;5112947;28;20020;-60
2021/09/09 06:52:41;;;;;;;1.17;0.40;;;;;;;;;;5113140;28;20046;-59
2021/09/09 06:55:09;;;;;;;0.63;0.50;;;;;;;;;;5112925;28;20035;-60
2021/09/09 15:28:32;;;;;;;2.57;1.30;;;;;;;;;;5169395;27;20696;-60
2021/09/09 15:30:59;;;;;;;2.97;0.80;;;;;;;;;;5045704;27;2236870;-60
2021/09/09 15:33:25;;;;;;;2.20;1.40;;;;;;;;;;5124681;28;20059;-60
2021/09/09 15:35:52;;;;;;;2.63;1.30;;;;;;;;;;5124709;28;20023;-61
2021/09/09 15:38:19;;;;;;;1.50;1.20;;;;;;;;;;5124840;28;20020;-60
2021/09/09 15:40:46;;;;;;;3.17;1.00;;;;;;;;;;5130260;28;20019;-61
2021/09/09 15:43:12;;;;;;;2.67;1.20;;;;;;;;;;5130227;28;20012;-60
2021/09/09 15:45:39;;;;;;;1.90;1.20;;;;;;;;;;5129676;28;20020;-60
2021/09/09 15:48:06;;;;;;;2.23;1.33;;;;;;;;;;5130116;28;20515;-61
2021/09/09 15:50:33;;;;;;;2.53;1.10;;;;;;;;;;5129444;28;20019;-60
2021/09/09 15:53:00;;;;;;;3.23;1.53;;;;;;;;;;5123816;28;20550;-61
2021/09/09 15:55:27;;;;;;;5.00;1.93;;;;;;;;;;5124156;28;20024;-60
2021/09/09 15:57:54;;;;;;;3.67;1.33;;;;;;;;;;5124410;28;20036;-60
2021/09/09 16:00:20;;;;;;;2.13;1.20;;;;;;;;;;5123667;28;20175;-60
2021/09/09 16:02:47;;;;;;;1.93;1.00;;;;;;;;;;5129687;28;20469;-60
2021/09/09 16:05:14;;;;;;;0.97;0.80;;;;;;;;;;5129787;28;20023;-61
2021/09/09 16:07:41;;;;;;;3.47;1.10;;;;;;;;;;5129495;28;20024;-61
2021/09/09 16:10:10;;;;;;;4.07;0.97;;;;;;;;;;5129731;28;20167;-60
2021/09/09 16:12:38;;;;;;;1.97;1.10;;;;;;;;;;5129207;28;20031;-60
2021/09/09 16:15:06;;;;;;;1.37;0.90;;;;;;;;;;5123251;28;20100;-61
2021/09/09 16:17:32;;;;;;;3.20;1.30;;;;;;;;;;5123866;28;20027;-61
2021/09/09 16:19:59;;;;;;;2.63;1.27;;;;;;;;;;5124070;28;20019;-62
2021/09/09 16:22:26;;;;;;;1.97;1.10;;;;;;;;;;5123856;28;20034;-61
2021/09/09 16:24:53;;;;;;;1.10;0.70;;;;;;;;;;5128632;28;20032;-61
2021/09/09 16:27:20;;;;;;;1.73;1.07;;;;;;;;;;5128473;28;20494;-61
2021/09/09 16:29:47;;;;;;;3.80;0.90;;;;;;;;;;5115176;28;20068;-61
2021/09/09 16:32:15;;;;;;;5.37;1.90;;;;;;;;;;5115022;28;20034;-61
2021/09/09 16:34:41;;;;;;;3.77;1.67;;;;;;;;;;5115565;28;20036;-61
2021/09/09 16:37:08;;;;;;;5.60;2.43;;;;;;;;;;5109806;28;20027;-62
2021/09/09 16:39:35;;;;;;;6.90;4.23;;;;;;;;;;5110041;28;20027;-62
2021/09/09 16:42:02;;;;;;;3.80;2.30;;;;;;;;;;5109565;28;20423;-62
2021/09/09 16:44:29;;;;;;;3.93;1.97;;;;;;;;;;5109728;28;20084;-62
2021/09/09 16:46:55;;;;;;;3.67;1.90;;;;;;;;;;5114320;28;20035;-61
2021/09/09 16:49:23;;;;;;;3.30;1.80;;;;;;;;;;5115139;28;20042;-61
2021/09/09 16:51:50;;;;;;;1.97;1.30;;;;;;;;;;5114821;28;20102;-61
2021/09/09 16:54:16;;;;;;;2.80;1.30;;;;;;;;;;5115396;28;20019;-62
2021/09/09 16:56:48;;;;;;;1.02;0.77;;;;;;;;;;5115073;28;20421;-62
2021/09/09 16:59:16;;;;;;;1.75;1.13;;;;;;;;;;5109786;28;20020;-62
2021/09/09 17:01:46;;;;;;;1.80;0.98;;;;;;;;;;5109539;28;20042;-62
2021/09/09 17:04:13;;;;;;;1.58;0.80;;;;;;;;;;5109551;28;20027;-62
2021/09/09 17:06:40;;;;;;;1.30;0.77;;;;;;;;;;5109417;28;20051;-62
2021/09/09 17:09:06;;;;;;;1.25;0.80;;;;;;;;;;5113740;28;20023;-62
2021/09/09 17:11:33;;;;;;;3.15;0.95;;;;;;;;;;5114775;28;20111;-62
2021/09/09 17:14:00;;;;;;;1.05;0.75;;;;;;;;;;5114583;28;20518;-62
2021/09/09 17:16:27;;;;;;;2.58;0.85;;;;;;;;;;5114404;28;20051;-62
2021/09/09 17:18:54;;;;;;;1.90;0.63;;;;;;;;;;5114733;28;20032;-62
2021/09/09 17:21:21;;;;;;;2.28;0.60;;;;;;;;;;5109668;28;20035;-62
2021/09/09 17:23:49;;;;;;;0.77;0.60;;;;;;;;;;5109117;28;20106;-62
2021/09/09 17:26:16;;;;;;;4.50;0.73;;;;;;;;;;5108943;28;20051;-62
2021/09/09 17:28:43;;;;;;;1.45;0.70;;;;;;;;;;5108809;28;20032;-62
2021/09/09 17:31:10;;;;;;;1.35;0.75;;;;;;;;;;5113016;28;20032;-62
2021/09/09 17:33:37;;;;;;;2.28;0.47;;;;;;;;;;5114390;28;20419;-62
2021/09/09 17:36:04;;;;;;;2.33;0.73;;;;;;;;;;5114422;28;20024;-62
2021/09/09 17:38:32;;;;;;;2.60;0.65;;;;;;;;;;5113938;28;20034;-62
2021/09/09 17:40:58;;;;;;;2.83;0.40;;;;;;;;;;5113212;28;20407;-62
2021/09/09 17:43:25;;;;;;;1.25;0.70;;;;;;;;;;5109997;28;20024;-62
2021/09/09 17:45:52;;;;;;;0.88;0.50;;;;;;;;;;5108603;28;20104;-62
2021/09/09 17:48:19;;;;;;;2.58;0.63;;;;;;;;;;5108572;28;20030;-62
2021/09/09 17:50:46;;;;;;;2.10;0.90;;;;;;;;;;5108236;28;20028;-62
2021/09/09 17:53:13;;;;;;;1.42;0.60;;;;;;;;;;5111491;28;20028;-62
2021/09/09 17:55:43;;;;;;;0.80;0.60;;;;;;;;;;5113941;28;20080;-62
2021/09/09 17:58:10;;;;;;;3.70;0.47;;;;;;;;;;5113834;28;20534;-62
2021/09/09 18:00:37;;;;;;;0.98;0.45;;;;;;;;;;5113902;28;20015;-62
2021/09/09 18:03:03;;;;;;;2.90;0.55;;;;;;;;;;5113890;28;20020;-62
2021/09/09 18:05:30;;;;;;;2.78;1.00;;;;;;;;;;5110171;28;20031;-62
2021/09/09 18:07:58;;;;;;;1.00;0.70;;;;;;;;;;5107946;28;20035;-62
2021/09/09 18:10:25;;;;;;;2.00;0.82;;;;;;;;;;5107905;28;20049;-62
2021/09/09 18:12:52;;;;;;;0.90;0.63;;;;;;;;;;5108304;28;20042;-62
2021/09/09 18:15:19;;;;;;;1.02;0.60;;;;;;;;;;5110791;28;20023;-62
2021/09/09 18:17:49;;;;;;;1.42;0.70;;;;;;;;;;5113479;28;20028;-62
2021/09/09 18:20:16;;;;;;;2.00;0.77;;;;;;;;;;5113420;28;20031;-62
2021/09/09 18:22:43;;;;;;;1.25;0.60;;;;;;;;;;5113302;28;20019;-62
2021/09/09 18:25:10;;;;;;;1.65;0.90;;;;;;;;;;5112634;28;20019;-62
2021/09/09 18:27:37;;;;;;;1.52;0.88;;;;;;;;;;5110467;28;20126;-62
2021/09/09 18:30:05;;;;;;;1.65;0.98;;;;;;;;;;5107818;28;20027;-62
2021/09/09 18:32:31;;;;;;;1.92;0.68;;;;;;;;;;5107592;28;20028;-62
2021/09/09 18:34:58;;;;;;;1.75;0.93;;;;;;;;;;5107722;28;20023;-62
2021/09/09 18:37:27;;;;;;;1.52;0.75;;;;;;;;;;5109744;28;20510;-63
2021/09/09 18:39:54;;;;;;;4.13;0.70;;;;;;;;;;5112612;28;20034;-62
2021/09/09 18:42:21;;;;;;;1.90;0.70;;;;;;;;;;5112689;28;20377;-62
2021/09/09 18:44:47;;;;;;;3.55;0.52;;;;;;;;;;5112936;28;20538;-62
2021/09/09 18:47:14;;;;;;;1.35;0.70;;;;;;;;;;5112936;28;20116;-62
2021/09/09 18:49:41;;;;;;;1.50;0.70;;;;;;;;;;5110314;28;20024;-62
2021/09/09 18:52:08;;;;;;;1.13;0.60;;;;;;;;;;5107452;28;20024;-62
2021/09/09 18:54:34;;;;;;;1.65;0.70;;;;;;;;;;5107371;28;20023;-62
2021/09/09 18:57:01;;;;;;;0.88;0.60;;;;;;;;;;5107118;28;20098;-62
2021/09/09 18:59:28;;;;;;;2.63;0.60;;;;;;;;;;5108650;28;20023;-62
2021/09/09 19:01:55;;;;;;;0.47;0.40;;;;;;;;;;5112883;28;20027;-62
2021/09/09 19:04:22;;;;;;;6.53;1.00;;;;;;;;;;5112755;28;20031;-62
2021/09/09 19:06:48;;;;;;;1.05;0.60;;;;;;;;;;5112752;28;20084;-62
2021/09/09 19:09:15;;;;;;;0.75;0.60;;;;;;;;;;5112792;28;20055;-62
2021/09/09 19:11:42;;;;;;;1.80;0.70;;;;;;;;;;5110863;28;20036;-62
2021/09/09 19:14:09;;;;;;;1.23;0.50;;;;;;;;;;5107021;28;20023;-62
2021/09/09 19:16:35;;;;;;;4.18;0.60;;;;;;;;;;5106938;28;20024;-62
2021/09/09 19:19:05;;;;;;;1.70;0.50;;;;;;;;;;5107154;28;21730;-62
2021/09/09 19:21:32;;;;;;;1.92;0.73;;;;;;;;;;5108334;28;20036;-62
2021/09/09 19:23:59;;;;;;;0.80;0.40;;;;;;;;;;5112630;28;20032;-63
2021/09/09 19:26:26;;;;;;;2.55;0.75;;;;;;;;;;5112601;28;20111;-62
2021/09/09 19:28:53;;;;;;;4.70;1.00;;;;;;;;;;5112457;28;20023;-62
2021/09/09 19:31:19;;;;;;;1.70;0.60;;;;;;;;;;5112195;28;20047;-63
2021/09/09 19:33:46;;;;;;;2.28;0.80;;;;;;;;;;5111270;28;20024;-62
2021/09/09 19:36:13;;;;;;;2.53;0.75;;;;;;;;;;5106972;28;20120;-63
2021/09/09 19:38:40;;;;;;;0.85;0.60;;;;;;;;;;5107144;28;20020;-62
2021/09/09 19:41:07;;;;;;;1.00;0.60;;;;;;;;;;5106927;28;20447;-62
2021/09/09 19:43:33;;;;;;;1.58;0.73;;;;;;;;;;5107256;28;20528;-62
2021/09/09 19:46:00;;;;;;;2.08;0.63;;;;;;;;;;5112299;28;20020;-62
2021/09/09 19:48:27;;;;;;;0.47;0.43;;;;;;;;;;5111927;28;20043;-62
2021/09/09 19:50:54;;;;;;;1.05;0.55;;;;;;;;;;5112164;28;20020;-62
2021/09/09 19:53:21;;;;;;;2.72;0.80;;;;;;;;;;5112464;28;20024;-62
2021/09/09 19:55:48;;;;;;;1.90;0.80;;;;;;;;;;5111869;28;20038;-63
2021/09/09 19:58:15;;;;;;;1.67;0.60;;;;;;;;;;5106703;28;20031;-62
2021/09/09 20:00:42;;;;;;;24.27;2.22;;;;;;;;;;5106711;28;20119;-63
2021/09/09 20:03:09;;;;;;;0.85;0.60;;;;;;;;;;5107482;28;20065;-62
2021/09/09 20:05:36;;;;;;;2.55;0.60;;;;;;;;;;5110074;28;20026;-62
2021/09/09 20:08:03;;;;;;;3.22;0.80;;;;;;;;;;5115476;28;20031;-62
2021/09/09 20:10:30;;;;;;;2.22;0.90;;;;;;;;;;5115856;28;20442;-62
2021/09/09 20:12:56;;;;;;;2.35;0.80;;;;;;;;;;5116013;28;20394;-62
2021/09/09 20:15:23;;;;;;;1.38;0.73;;;;;;;;;;5115879;28;20385;-62
2021/09/09 20:17:50;;;;;;;4.22;0.70;;;;;;;;;;5115899;28;20024;-63
2021/09/09 20:20:17;;;;;;;1.25;0.65;;;;;;;;;;5110405;28;20028;-62
2021/09/09 20:22:44;;;;;;;2.42;0.80;;;;;;;;;;5110054;28;20089;-63
2021/09/09 20:25:11;;;;;;;2.00;0.70;;;;;;;;;;5110176;28;20076;-62
2021/09/09 20:27:38;;;;;;;0.93;0.60;;;;;;;;;;5110075;28;20058;-62
2021/09/09 20:30:05;;;;;;;1.30;0.70;;;;;;;;;;5114577;28;20031;-62
2021/09/09 20:32:31;;;;;;;2.88;0.82;;;;;;;;;;5115870;28;20027;-62
2021/09/09 20:34:58;;;;;;;2.22;0.70;;;;;;;;;;5115526;28;20042;-63
2021/09/09 20:37:26;;;;;;;3.20;1.00;;;;;;;;;;5115592;28;20419;-62
2021/09/09 20:39:53;;;;;;;3.65;1.17;;;;;;;;;;5115064;28;20038;-62
2021/09/09 20:42:21;;;;;;;4.70;0.90;;;;;;;;;;5110566;28;20039;-62
2021/09/09 20:44:47;;;;;;;3.55;1.00;;;;;;;;;;5109632;28;20031;-62
2021/09/09 20:47:14;;;;;;;1.83;0.90;;;;;;;;;;5109886;28;20032;-62
2021/09/09 20:49:41;;;;;;;3.83;0.95;;;;;;;;;;5109898;28;20030;-62
2021/09/09 20:52:08;;;;;;;1.20;0.85;;;;;;;;;;5113302;28;20026;-62
2021/09/09 20:54:34;;;;;;;1.60;0.80;;;;;;;;;;5114882;28;20049;-62
2021/09/09 20:57:01;;;;;;;1.02;0.63;;;;;;;;;;5115277;28;20028;-62
2021/09/09 20:59:29;;;;;;;1.88;0.95;;;;;;;;;;5114906;28;20130;-62
2021/09/09 21:01:56;;;;;;;1.73;0.80;;;;;;;;;;5114815;28;20031;-62
2021/09/09 21:04:23;;;;;;;1.67;1.00;;;;;;;;;;5111215;28;20062;-62
2021/09/09 21:06:50;;;;;;;1.48;0.75;;;;;;;;;;5109473;28;20115;-62
2021/09/09 21:09:16;;;;;;;2.28;0.93;;;;;;;;;;5109515;28;20077;-62
2021/09/09 21:11:43;;;;;;;3.93;1.13;;;;;;;;;;5108875;28;20028;-62
2021/09/09 21:14:10;;;;;;;1.33;0.73;;;;;;;;;;5112136;28;20031;-62
2021/09/09 21:16:37;;;;;;;12.37;2.57;;;;;;;;;;5114336;28;20039;-62
2021/09/09 21:19:04;;;;;;;2.22;0.88;;;;;;;;;;5114578;28;20026;-62
2021/09/09 21:21:30;;;;;;;2.33;0.83;;;;;;;;;;5114619;28;20024;-62
2021/09/09 21:23:57;;;;;;;2.10;0.70;;;;;;;;;;5114685;28;20020;-63
2021/09/09 21:26:24;;;;;;;5.57;1.77;;;;;;;;;;5111387;28;20111;-62
2021/09/09 21:28:51;;;;;;;1.17;0.60;;;;;;;;;;5108600;28;20389;-62
2021/09/09 21:31:18;;;;;;;1.37;0.80;;;;;;;;;;5109025;28;20043;-62
2021/09/09 21:33:44;;;;;;;2.87;1.10;;;;;;;;;;5108838;28;20109;-62
2021/09/09 21:36:11;;;;;;;2.60;1.30;;;;;;;;;;5111226;28;20752;-62
2021/09/09 21:38:38;;;;;;;3.03;1.57;;;;;;;;;;5114363;28;20567;-62
2021/09/09 21:41:05;;;;;;;4.40;1.87;;;;;;;;;;5114385;28;20052;-62
2021/09/09 21:43:32;;;;;;;4.70;1.50;;;;;;;;;;5114087;28;20035;-62
2021/09/09 21:45:59;;;;;;;4.80;1.33;;;;;;;;;;5113578;28;20039;-62
2021/09/09 21:48:26;;;;;;;8.03;1.40;;;;;;;;;;5111678;28;20479;-62
2021/09/09 21:50:52;;;;;;;4.00;1.63;;;;;;;;;;5108612;28;20036;-62
2021/09/09 21:53:19;;;;;;;5.17;1.10;;;;;;;;;;5108582;28;20020;-62
2021/09/09 21:55:46;;;;;;;2.93;1.10;;;;;;;;;;5108588;28;20033;-62
2021/09/09 21:58:13;;;;;;;1.90;0.97;;;;;;;;;;5110138;28;20366;-62
2021/09/09 22:00:39;;;;;;;2.23;1.00;;;;;;;;;;5094543;28;20020;-62
2021/09/09 22:03:06;;;;;;;1.07;0.70;;;;;;;;;;5093057;28;20488;-62
2021/09/09 22:05:33;;;;;;;3.00;1.30;;;;;;;;;;5093522;28;20475;-62
2021/09/09 22:08:00;;;;;;;2.73;1.10;;;;;;;;;;5092914;28;20032;-62
2021/09/09 22:10:27;;;;;;;1.50;0.80;;;;;;;;;;5091674;28;20509;-63
2021/09/09 22:12:53;;;;;;;5.13;1.27;;;;;;;;;;5087771;28;20020;-62
2021/09/09 22:15:20;;;;;;;1.43;0.77;;;;;;;;;;5087840;28;20032;-62
2021/09/09 22:17:47;;;;;;;1.53;0.80;;;;;;;;;;5088017;28;20099;-63
2021/09/09 22:20:15;;;;;;;4.03;0.57;;;;;;;;;;5088440;28;20482;-62
2021/09/09 22:22:43;;;;;;;0.70;0.40;;;;;;;;;;5093179;28;20873;-62
2021/09/09 22:25:10;;;;;;;50.53;3.87;;;;;;;;;;5092976;28;20020;-62
2021/09/09 22:27:40;;;;;;;30.97;2.50;;;;;;;;;;5091688;28;20032;-62
2021/09/09 22:30:07;;;;;;;23.30;1.50;;;;;;;;;;5093059;28;20501;-62
2021/09/09 22:32:34;;;;;;;9.80;0.93;;;;;;;;;;5091341;28;20020;-62
2021/09/09 22:35:01;;;;;;;3.00;0.70;;;;;;;;;;5087810;28;20477;-62
2021/09/09 22:37:28;;;;;;;20.10;2.10;;;;;;;;;;5087774;28;20035;-62
2021/09/09 22:39:54;;;;;;;20.87;2.70;;;;;;;;;;5088033;28;20028;-62
2021/09/09 22:42:21;;;;;;;4.73;0.70;;;;;;;;;;5087463;28;20043;-62
2021/09/09 22:44:50;;;;;;;4.60;0.70;;;;;;;;;;5092530;28;20028;-62
2021/09/09 22:47:17;;;;;;;6.77;0.90;;;;;;;;;;5092679;28;20485;-62
2021/09/09 22:49:44;;;;;;;3.53;0.90;;;;;;;;;;5092662;28;20374;-62
2021/09/09 22:52:11;;;;;;;1.43;0.50;;;;;;;;;;5092280;28;20028;-62
2021/09/09 22:54:38;;;;;;;9.07;2.20;;;;;;;;;;5092348;28;20122;-62
2021/09/09 22:57:05;;;;;;;10.70;1.23;;;;;;;;;;5087621;28;20035;-62
2021/09/09 22:59:31;;;;;;;5.27;0.77;;;;;;;;;;5087680;28;20535;-62
2021/09/09 23:01:58;;;;;;;1.53;0.43;;;;;;;;;;5087144;28;20401;-62
2021/09/09 23:04:25;;;;;;;16.83;1.10;;;;;;;;;;5087332;28;20695;-62
2021/09/09 23:06:52;;;;;;;34.80;2.57;;;;;;;;;;5092016;28;20142;-62
2021/09/09 23:09:18;;;;;;;2.23;0.50;;;;;;;;;;5092133;28;20035;-61
2021/09/09 23:11:45;;;;;;;3.73;0.70;;;;;;;;;;5088674;28;20034;-61